createdAt,value
2022-08-07T00:01:43.249Z,25.21
2022-08-07T00:06:33.419Z,25.20
2022-08-07T00:11:39.942Z,25.20
2022-08-07T00:17:02.829Z,25.19
2022-08-07T00:22:37.927Z,25.18
2022-08-07T00:27:53.534Z,25.17
2022-08-07T00:33:01.250Z,25.17
2022-08-07T00:38:06.299Z,25.17
2022-08-07T00:43:59.359Z,25.18
2022-08-07T00:48:35.092Z,25.14
2022-08-07T00:53:54.938Z,25.13
2022-08-07T00:59:00.309Z,25.11
2022-08-07T01:04:08.365Z,25.10
2022-08-07T01:09:11.980Z,25.08
2022-08-07T01:14:37.152Z,25.10
2022-08-07T01:19:42.043Z,25.13
2022-08-07T01:25:00.009Z,25.10
2022-08-07T01:30:05.749Z,25.07
2022-08-07T01:35:09.298Z,25.05
2022-08-07T01:40:21.484Z,25.00
2022-08-07T01:45:37.268Z,24.94
2022-08-07T01:50:59.036Z,24.91
2022-08-07T01:56:18.354Z,24.90
2022-08-07T02:02:00.098Z,24.89
2022-08-07T02:06:55.991Z,24.86
2022-08-07T02:12:05.254Z,24.83
2022-08-07T02:17:24.753Z,24.84
2022-08-07T02:22:33.337Z,24.83
2022-08-07T02:27:41.209Z,24.82
2022-08-07T02:33:03.686Z,24.83
2022-08-07T02:38:16.240Z,24.81
2022-08-07T02:43:20.855Z,24.78
2022-08-07T02:48:26.010Z,24.74
2022-08-07T02:53:39.107Z,24.70
2022-08-07T02:58:48.258Z,24.67
2022-08-07T03:03:53.610Z,24.64
2022-08-07T03:09:06.453Z,24.65
2022-08-07T03:14:10.717Z,24.64
2022-08-07T03:19:15.592Z,24.64
2022-08-07T03:24:27.398Z,24.65
2022-08-07T03:29:49.605Z,24.71
2022-08-07T03:35:17.781Z,24.78
2022-08-07T03:40:31.044Z,24.86
2022-08-07T03:45:47.822Z,24.90
2022-08-07T03:50:58.124Z,24.95
2022-08-07T03:56:11.039Z,24.99
2022-08-07T04:01:23.415Z,25.09
2022-08-07T04:06:37.886Z,25.24
2022-08-07T04:12:25.549Z,25.38
2022-08-07T04:17:19.855Z,25.51
2022-08-07T04:22:29.641Z,25.55
2022-08-07T04:27:43.920Z,25.61
2022-08-07T04:32:58.048Z,25.63
2022-08-07T04:38:07.702Z,25.68
2022-08-07T04:43:17.960Z,25.84
2022-08-07T04:48:32.864Z,26.06
2022-08-07T04:54:05.702Z,26.16
2022-08-07T05:00:11.605Z,26.25
2022-08-07T05:05:51.960Z,26.33
2022-08-07T05:11:19.422Z,26.34
2022-08-07T05:16:31.670Z,26.48
2022-08-07T05:21:59.836Z,26.53
2022-08-07T05:27:03.206Z,26.77
2022-08-07T05:32:09.887Z,27.15
2022-08-07T05:37:16.594Z,27.31
2022-08-07T05:42:40.296Z,27.64
2022-08-07T05:48:01.489Z,27.56
2022-08-07T05:54:13.381Z,27.54
2022-08-07T05:58:52.368Z,27.59
2022-08-07T06:04:01.580Z,27.73
2022-08-07T06:09:15.120Z,28.07
2022-08-07T06:14:28.817Z,29.53
2022-08-07T06:19:52.192Z,31.77
2022-08-07T06:25:01.069Z,34.61
2022-08-07T06:30:07.086Z,36.30
2022-08-07T06:35:39.068Z,36.40
2022-08-07T06:40:53.422Z,35.91
2022-08-07T06:46:00.872Z,36.79
2022-08-07T06:51:09.629Z,37.83
2022-08-07T06:56:17.675Z,38.03
2022-08-07T07:01:23.904Z,36.96
2022-08-07T07:06:39.395Z,36.19
2022-08-07T07:12:07.749Z,35.28
2022-08-07T07:17:50.533Z,34.78
2022-08-07T07:24:05.970Z,35.13
2022-08-07T07:28:48.389Z,35.67
2022-08-07T07:34:04.992Z,35.33
2022-08-07T07:39:12.013Z,34.93
2022-08-07T07:44:25.789Z,34.68
2022-08-07T07:50:34.582Z,34.42
2022-08-07T07:54:57.197Z,33.92
2022-08-07T08:00:05.864Z,33.49
2022-08-07T08:05:17.615Z,33.34
2022-08-07T08:10:37.622Z,33.23
2022-08-07T08:15:58.651Z,33.20
2022-08-07T08:21:03.612Z,33.12
2022-08-07T08:26:09.951Z,33.25
2022-08-07T08:31:30.407Z,33.11
2022-08-07T08:36:46.327Z,33.02
2022-08-07T08:42:00.245Z,33.03
2022-08-07T08:47:26.021Z,32.95
2022-08-07T08:52:40.762Z,32.87
2022-08-07T08:58:13.333Z,32.81
2022-08-07T09:03:49.600Z,32.69
2022-08-07T09:09:02.141Z,32.63
2022-08-07T09:14:29.963Z,32.57
2022-08-07T09:20:01.233Z,32.44
2022-08-07T09:25:26.703Z,32.28
2022-08-07T09:31:00.130Z,32.17
2022-08-07T09:36:18.905Z,32.11
2022-08-07T09:42:03.023Z,31.88
2022-08-07T09:47:55.451Z,31.63
2022-08-07T09:53:09.255Z,31.42
2022-08-07T09:58:43.380Z,31.37
2022-08-07T10:04:28.229Z,31.38
2022-08-07T10:10:01.117Z,31.40
2022-08-07T10:15:28.342Z,31.44
2022-08-07T10:20:53.468Z,31.37
2022-08-07T10:26:06.507Z,31.32
2022-08-07T10:31:31.492Z,31.13
2022-08-07T10:36:56.884Z,31.01
2022-08-07T10:42:31.412Z,30.99
2022-08-07T10:47:57.569Z,30.97
2022-08-07T10:53:44.543Z,30.81
2022-08-07T10:59:00.048Z,30.76
2022-08-07T11:04:41.265Z,30.74
2022-08-07T11:10:09.071Z,30.56
2022-08-07T11:15:26.331Z,30.54
2022-08-07T11:20:40.545Z,30.57
2022-08-07T11:26:21.891Z,30.58
2022-08-07T11:31:39.472Z,30.52
2022-08-07T11:37:02.446Z,30.52
2022-08-07T11:42:30.485Z,30.44
2022-08-07T11:48:02.626Z,30.40
2022-08-07T11:53:28.237Z,30.40
2022-08-07T11:58:41.438Z,30.24
2022-08-07T12:03:59.471Z,30.17
2022-08-07T12:09:31.717Z,29.96
2022-08-07T12:15:01.205Z,29.78
2022-08-07T12:20:30.849Z,29.74
2022-08-07T12:26:02.854Z,29.62
2022-08-07T12:31:24.496Z,29.49
2022-08-07T12:36:32.756Z,29.48
2022-08-07T12:41:49.204Z,29.40
2022-08-07T12:47:21.480Z,29.37
2022-08-07T12:52:53.112Z,29.39
2022-08-07T12:58:01.239Z,29.39
2022-08-07T13:03:27.545Z,29.33
2022-08-07T13:09:02.280Z,29.26
2022-08-07T13:14:31.525Z,29.23
2022-08-07T13:19:55.010Z,29.22
2022-08-07T13:25:09.760Z,29.13
2022-08-07T13:30:40.543Z,29.02
2022-08-07T13:36:00.751Z,29.01
2022-08-07T13:41:29.291Z,28.95
2022-08-07T13:46:38.841Z,28.93
2022-08-07T13:52:05.000Z,28.81
2022-08-07T13:57:37.623Z,28.67
2022-08-07T14:02:51.073Z,28.58
2022-08-07T14:08:01.352Z,28.57
2022-08-07T14:13:06.866Z,28.52
2022-08-07T14:18:56.779Z,28.42
2022-08-07T14:24:05.339Z,28.39
2022-08-07T14:30:07.620Z,28.43
2022-08-07T14:34:46.079Z,28.40
2022-08-07T14:40:18.232Z,28.39
2022-08-07T14:45:22.232Z,28.36
2022-08-07T14:50:50.943Z,28.31
2022-08-07T14:56:00.891Z,28.15
2022-08-07T15:01:22.641Z,27.96
2022-08-07T15:06:30.009Z,27.84
2022-08-07T15:17:13.901Z,27.72
2022-08-07T15:22:29.322Z,27.73
2022-08-07T15:28:32.503Z,27.69
2022-08-07T15:33:19.537Z,27.62
2022-08-07T15:38:58.775Z,27.53
2022-08-07T15:44:01.292Z,27.38
2022-08-07T15:54:43.420Z,27.17
2022-08-07T15:59:49.689Z,27.04
2022-08-07T16:05:02.161Z,26.94
2022-08-07T16:10:19.850Z,26.86
2022-08-07T16:15:55.326Z,26.79
2022-08-07T16:22:01.183Z,26.73
2022-08-07T16:26:59.424Z,26.67
2022-08-07T16:32:25.459Z,26.55
2022-08-07T16:38:04.177Z,26.45
2022-08-07T16:44:03.834Z,26.31
2022-08-07T16:50:20.281Z,26.20
2022-08-07T16:55:08.556Z,26.14
2022-08-07T17:00:29.670Z,26.14
2022-08-07T17:06:19.466Z,26.12
2022-08-07T17:11:17.115Z,26.09
2022-08-07T17:16:28.819Z,26.06
2022-08-07T17:21:59.041Z,26.02
2022-08-07T17:27:19.834Z,26.01
2022-08-07T17:32:35.553Z,26.06
2022-08-07T17:38:09.613Z,26.08
2022-08-07T17:44:01.906Z,26.03
2022-08-07T17:49:10.458Z,25.98
2022-08-07T17:54:53.177Z,25.92
2022-08-07T18:00:11.338Z,25.88
2022-08-07T18:05:24.259Z,25.85
2022-08-07T18:12:06.635Z,25.80
2022-08-07T18:16:30.974Z,25.78
2022-08-07T18:22:00.469Z,25.74
2022-08-07T18:27:38.858Z,25.72
2022-08-07T18:33:12.104Z,25.74
2022-08-07T18:38:55.689Z,25.79
2022-08-07T18:45:45.076Z,25.84
2022-08-07T18:50:39.156Z,25.85
2022-08-07T18:56:58.413Z,25.80
2022-08-07T19:02:18.709Z,25.75
2022-08-07T19:08:19.845Z,25.69
2022-08-07T19:13:36.027Z,25.61
2022-08-07T19:18:52.431Z,25.55
2022-08-07T19:24:00.703Z,25.50
2022-08-07T19:30:56.671Z,25.46
2022-08-07T19:34:32.741Z,25.43
2022-08-07T19:39:57.792Z,25.36
2022-08-07T19:45:12.382Z,25.31
2022-08-07T19:50:40.834Z,25.29
2022-08-07T19:55:57.634Z,25.26
2022-08-07T20:01:03.108Z,25.24
2022-08-07T20:06:15.458Z,25.21
2022-08-07T20:12:00.997Z,25.19
2022-08-07T20:16:58.078Z,25.15
2022-08-07T20:22:02.618Z,25.12
2022-08-07T20:27:11.659Z,25.07
2022-08-07T20:32:22.688Z,25.01
2022-08-07T20:37:46.758Z,24.99
2022-08-07T20:42:58.198Z,24.96
2022-08-07T20:48:03.593Z,24.95
2022-08-07T20:53:13.851Z,24.97
2022-08-07T20:58:28.362Z,25.01
2022-08-07T21:03:34.490Z,25.05
2022-08-07T21:09:14.221Z,25.12
2022-08-07T21:14:35.494Z,25.19
2022-08-07T21:19:50.816Z,25.19
2022-08-07T21:25:38.915Z,25.20
2022-08-07T21:31:03.654Z,25.17
2022-08-07T21:36:33.351Z,25.11
2022-08-07T21:41:52.404Z,25.08
2022-08-07T21:47:17.388Z,25.02
2022-08-07T21:52:32.863Z,24.98
2022-08-07T21:58:08.520Z,24.94
2022-08-07T22:03:30.997Z,24.94
2022-08-07T22:09:07.256Z,24.96
2022-08-07T22:14:15.271Z,24.96
2022-08-07T22:19:54.655Z,24.96
2022-08-07T22:25:08.609Z,24.92
2022-08-07T22:30:17.644Z,24.90
2022-08-07T22:35:23.375Z,24.87
2022-08-07T22:40:39.094Z,24.88
2022-08-07T22:46:40.794Z,24.89
2022-08-07T22:52:10.170Z,24.94
2022-08-07T22:57:34.229Z,24.95
2022-08-07T23:03:12.962Z,24.93
2022-08-07T23:08:46.741Z,24.92
2022-08-07T23:14:17.298Z,24.87
2022-08-07T23:19:59.927Z,24.85
2022-08-07T23:25:51.768Z,24.84
2022-08-07T23:31:18.605Z,24.78
2022-08-07T23:37:19.270Z,24.70
2022-08-07T23:42:42.210Z,24.66
2022-08-07T23:48:15.733Z,24.66
2022-08-07T23:53:50.963Z,24.69
